Latest Coastal Weather Observations for Bundaberg

IDQ60701

Issued at 5:12 am EST Monday 2 March 2015 (issued every 10 minutes, with the page automatically refreshed every 10 minutes)

About coastal observations | Map of coastal stations | Coastal observations for QLD | Marine services | Other Formats
Station Details ID: 039128 Name: BUNDABERG AERO Lat: -24.91 Lon: 152.32 Height: 30.82 m
Data from the previous 72 hours. | See also: Recent months at Bundaberg
Date/Time
EST
Temp

°C
Wind Pressure Rain
since 9am
mm
Weather Cloud Vis
km
Sea
Height
m
Swell
Dir
 
Speed
knots
Gust
knots
hPa Trend Height
m
Period
s
Dir
02/05:00am 22.9 SSE 5 6 1009.9 - 0.0 - Partly cloudy 10 - - - -
02/04:30am 23.0 SSE 4 6 1009.3 - 0.0 - Partly cloudy 10 - - - -
02/04:00am 23.4 S 3 4 1009.2 - 0.0 - Cloudy 10 - - - -
02/03:30am 22.9 SSE 3 4 1009.0 - 0.0 - Partly cloudy 10 - - - -
02/03:00am 22.8 SSE 4 5 1009.0 - 0.0 - Mostly clear 10 - - - -
02/02:30am 22.9 SE 4 5 1008.8 - 0.0 - Partly cloudy 10 - - - -
02/02:00am 23.2 CALM 0 0 1008.7 - 0.0 - Cloudy 10 - - - -
02/01:30am 23.6 CALM 0 3 1009.1 - 0.0 - Partly cloudy 10 - - - -
02/01:00am 23.6 S 1 3 1009.6 - 0.0 - Partly cloudy 10 - - - -
02/12:30am 23.6 CALM 0 0 1009.9 - 0.0 - - 10 - - - -
02/12:00am 24.0 CALM 0 0 1009.7 - 0.0 - Mostly clear 10 - - - -
 
Date/Time
EST
Temp

°C
Wind Pressure Rain
since 9am
mm
Weather Cloud Vis
km
Sea
Height
m
Swell
Dir
 
Speed
knots
Gust
knots
hPa Trend Height
m
Period
s
Dir
01/11:30pm 24.1 CALM 0 0 1010.1 - 0.0 - Partly cloudy 10 - - - -
01/11:00pm 24.3 W 1 4 1010.2 - 0.0 - Cloudy 10 - - - -
01/10:30pm 25.0 CALM 0 0 1010.3 - 0.0 - Partly cloudy 10 - - - -
01/10:00pm 24.9 NE 3 4 1010.1 - 0.0 - Partly cloudy 10 - - - -
01/09:30pm 24.9 NE 4 5 1010.3 - 0.0 - Partly cloudy 10 - - - -
01/09:00pm 25.2 NE 5 6 1009.9 - 0.0 - Mostly clear 10 - - - -
01/08:30pm 25.5 NE 6 9 1009.5 - 0.0 - - 10 - - - -
01/08:00pm 25.6 NE 7 10 1009.0 - 0.0 - - 10 - - - -
01/07:30pm 25.8 NE 7 9 1008.9 - 0.0 - - 10 - - - -
01/07:00pm 26.1 NE 7 9 1008.8 - 0.0 - - 10 - - - -
01/06:30pm 26.4 NE 8 11 1008.6 - 0.0 - - 10 - - - -
01/06:00pm 27.1 NNE 9 12 1008.1 - 0.0 - - 10 - - - -
01/05:30pm 27.9 NNE 9 12 1007.7 - 0.0 - - 10 - - - -
01/05:00pm 28.9 NE 9 12 1007.6 - 0.0 - - 10 - - - -
01/04:30pm 29.4 NE 10 13 1007.3 - 0.0 - - 10 - - - -
01/04:00pm 29.7 NE 9 13 1007.4 - 0.0 - - 10 - - - -
01/03:30pm 30.4 ENE 8 11 1007.4 - 0.0 - - 10 - - - -
01/03:00pm 29.4 NE 8 11 1007.6 - 0.0 - Mostly cloudy 10 - - - -
01/02:30pm 30.0 NE 9 15 1007.7 - 0.0 - Partly cloudy 10 - - - -
01/02:00pm 29.8 ENE 6 10 1008.1 - 0.0 - Partly cloudy 10 - - - -
01/01:30pm 30.3 NE 6 9 1008.4 - 0.0 - Partly cloudy 10 - - - -
01/01:00pm 29.8 NE 6 10 1008.6 - 0.0 - Partly cloudy 10 - - - -
01/12:30pm 30.4 NE 5 8 1008.9 - 0.0 - Partly cloudy 10 - - - -
01/12:00pm 29.0 NE 5 10 1009.4 - 0.0 - Partly cloudy 10 - - - -
01/11:30am 29.3 ESE 4 7 1009.8 - 0.0 - Partly cloudy 10 - - - -
01/11:00am 28.0 SSE 4 6 1010.3 - 0.0 - Partly cloudy 10 - - - -
01/10:30am 27.7 SSE 3 6 1010.6 - 0.0 - Partly cloudy 10 - - - -
01/10:00am 27.6 SSW 3 5 1010.6 - 0.0 - Partly cloudy 10 - - - -
01/09:30am 27.5 SSE 4 7 1010.7 - 0.0 - Partly cloudy 10 - - - -
01/09:00am 27.1 SSE 4 7 1010.8 - 0.0 - Partly cloudy 10 - - - -
01/08:30am 26.1 SSE 5 7 1010.6 - 0.0 - - 10 - - - -
01/08:00am 25.1 S 5 6 1010.4 - 0.0 - - 10 - - - -
01/07:30am 23.8 S 5 7 1010.0 - 0.0 - - 10 - - - -
01/07:00am 22.7 S 5 8 1009.9 - 0.0 - - 10 - - - -
01/06:30am 21.7 S 4 5 1009.7 - 0.0 - - 10 - - - -
01/06:00am 21.1 SSE 5 7 1009.4 - 0.0 - - 10 - - - -
01/05:30am 20.9 SSE 5 6 1009.3 - 0.0 - - 10 - - - -
01/05:00am 21.2 SSE 6 8 1009.1 - 0.0 - - 10 - - - -
01/04:30am 21.1 S 6 7 1008.9 - 0.0 - - 10 - - - -
01/04:00am 21.2 SSW 6 7 1008.9 - 0.0 - - 10 - - - -
01/03:30am 21.5 SSW 5 6 1008.8 - 0.0 - - 10 - - - -
01/03:00am 21.7 S 3 5 1008.8 - 0.0 - - 10 - - - -
01/02:30am 21.7 SSW 4 5 1009.0 - 0.0 - - 10 - - - -
01/02:00am 21.8 S 4 6 1009.3 - 0.0 - - 10 - - - -
01/01:30am 22.1 SSE 4 5 1009.5 - 0.0 - - 10 - - - -
01/01:00am 22.3 SSE 5 6 1009.9 - 0.0 - - 10 - - - -
01/12:30am 22.7 SSW 5 7 1010.2 - 0.0 - - 10 - - - -
01/12:00am 22.5 S 1 4 1010.2 - 0.0 - - 10 - - - -
 
Date/Time
EST
Temp

°C
Wind Pressure Rain
since 9am
mm
Weather Cloud Vis
km
Sea
Height
m
Swell
Dir
 
Speed
knots
Gust
knots
hPa Trend Height
m
Period
s
Dir
28/11:30pm 22.9 S 4 5 1010.4 - 0.0 - - 10 - - - -
28/11:00pm 23.1 CALM 0 0 1010.8 - 0.0 - Partly cloudy 10 - - - -
28/10:30pm 23.9 ESE 1 5 1010.8 - 0.0 - - 10 - - - -
28/10:00pm 23.9 ESE 4 5 1010.8 - 0.0 - - 10 - - - -
28/09:30pm 24.3 E 6 7 1010.5 - 0.0 - - 10 - - - -
28/09:00pm 24.6 E 6 7 1010.4 - 0.0 - - 10 - - - -
28/08:30pm 24.9 E 6 8 1010.2 - 0.0 - Partly cloudy 10 - - - -
28/08:00pm 25.1 ENE 6 8 1010.0 - 0.0 - Partly cloudy 10 - - - -
28/07:30pm 25.5 E 5 7 1009.8 - 0.0 - Partly cloudy 10 - - - -
28/07:00pm 25.6 ENE 5 7 1009.4 - 0.0 - - 10 - - - -
28/06:30pm 26.2 ENE 9 12 1009.0 - 0.0 - - 10 - - - -
28/06:00pm 27.0 ENE 10 14 1008.7 - 0.0 - - 10 - - - -
28/05:30pm 27.9 ENE 11 14 1008.4 - 0.0 - - 10 - - - -
28/05:00pm 28.6 ENE 11 15 1008.1 - 0.0 - - 10 - - - -
28/04:30pm 29.2 ENE 11 14 1007.7 - 0.0 - - 10 - - - -
28/04:00pm 29.7 ENE 11 15 1007.6 - 0.0 - - 10 - - - -
28/03:30pm 30.0 E 10 15 1007.6 - 0.0 - - 10 - - - -
28/03:00pm 30.3 E 11 14 1007.6 - 0.0 - - 10 - - - -
28/02:30pm 30.4 E 11 14 1008.0 - 0.0 - - 10 - - - -
28/02:00pm 30.3 ENE 10 14 1008.3 - 0.0 - - 10 - - - -
28/01:30pm 30.8 E 8 13 1008.4 - 0.0 - - 10 - - - -
28/01:00pm 30.2 E 7 12 1008.8 - 0.0 - - 10 - - - -
28/12:30pm 30.1 E 8 13 1009.2 - 0.0 - - 10 - - - -
28/12:00pm 29.7 ENE 7 10 1009.4 - 0.0 - Mostly clear 10 - - - -
28/11:30am 29.7 ESE 6 10 1009.8 - 0.0 - Partly cloudy 10 - - - -
28/11:00am 28.7 ESE 3 8 1010.4 - 0.0 - Partly cloudy 10 - - - -
28/10:30am 28.1 S 5 8 1010.6 - 0.0 - Partly cloudy 10 - - - -
28/10:00am 28.4 ESE 6 9 1010.4 - 0.0 - Partly cloudy 10 - - - -
28/09:30am 27.3 SE 6 10 1010.5 - 0.0 - Partly cloudy 10 - - - -
28/09:00am 27.2 ESE 5 8 1010.5 - 0.0 - Mostly clear 10 - - - -
28/08:30am 26.4 SE 5 8 1010.4 - 0.0 - Partly cloudy 10 - - - -
28/08:00am 24.3 SSE 5 7 1010.3 - 0.0 - Partly cloudy 10 - - - -
28/07:30am 23.2 S 5 7 1010.0 - 0.0 - Partly cloudy 10 - - - -
28/07:00am 22.5 S 7 8 1009.6 - 0.0 - Partly cloudy 10 - - - -
28/06:30am 22.1 S 6 7 1009.4 - 0.0 - Cloudy 10 - - - -
28/06:00am 21.7 S 5 7 1009.2 - 0.0 - Cloudy 10 - - - -
28/05:30am 21.6 S 6 7 1009.0 - 0.0 - Partly cloudy 10 - - - -
28/05:00am 21.5 SSW 7 8 1008.7 - 0.0 - Partly cloudy 10 - - - -
28/04:30am 21.3 S 6 8 1008.4 - 0.0 - Partly cloudy 10 - - - -
28/04:00am 21.3 S 4 6 1008.3 - 0.0 - Partly cloudy 10 - - - -
28/03:30am 21.4 S 4 5 1008.4 - 0.0 - - 10 - - - -
28/03:00am 21.6 CALM 0 0 1008.5 - 0.0 - - 10 - - - -
28/02:30am 21.9 SSE 1 3 1008.6 - 0.0 - - 10 - - - -
28/02:00am 22.4 CALM 0 0 1009.0 - 0.0 - Partly cloudy 10 - - - -
28/01:30am 22.4 SSW 5 5 1009.0 - 0.0 - Partly cloudy 10 - - - -
28/01:00am 22.9 S 3 4 1009.1 - 0.0 - Partly cloudy 10 - - - -
28/12:30am 23.0 S 3 4 1008.9 - 0.0 - Partly cloudy 10 - - - -
28/12:00am 23.0 SSE 4 5 1009.2 - 0.0 - Cloudy 10 - - - -
 
Date/Time
EST
Temp

°C
Wind Pressure Rain
since 9am
mm
Weather Cloud Vis
km
Sea
Height
m
Swell
Dir
 
Speed
knots
Gust
knots
hPa Trend Height
m
Period
s
Dir
27/11:30pm 23.0 S 4 5 1009.6 - 0.0 - Partly cloudy 10 - - - -
27/11:00pm 23.3 CALM 0 0 1009.1 - 0.0 - - 10 - - - -
27/10:30pm 23.6 ESE 4 5 1009.3 - 0.0 - - 10 - - - -
27/10:00pm 24.0 ENE 7 8 1009.1 - 0.0 - - 10 - - - -
27/09:30pm 24.1 E 6 7 1009.0 - 0.0 - - 10 - - - -
27/09:00pm 24.1 ENE 5 5 1009.1 - 0.0 - Mostly clear 10 - - - -
27/08:30pm 24.3 E 5 5 1008.9 - 0.0 - Partly cloudy 10 - - - -
27/08:00pm 24.7 ENE 5 6 1008.5 - 0.0 - - 10 - - - -
27/07:30pm 25.0 ENE 6 7 1007.9 - 0.0 - - 10 - - - -
27/07:00pm 25.5 ENE 6 8 1007.6 - 0.0 - - 10 - - - -
27/06:30pm 26.2 NE 9 11 1007.2 - 0.0 - - 10 - - - -
27/06:00pm 27.0 ENE 8 11 1007.0 - 0.0 - - 10 - - - -
27/05:30pm 27.9 ENE 10 13 1006.6 - 0.0 - - 10 - - - -
27/05:00pm 28.5 NE 10 13 1006.4 - 0.0 - - 10 - - - -
27/04:30pm 28.9 NE 11 14 1006.1 - 0.0 - - 10 - - - -
27/04:00pm 29.4 ENE 10 13 1005.8 - 0.0 - - 10 - - - -
27/03:30pm 29.7 NE 11 15 1005.8 - 0.0 - Partly cloudy 10 - - - -
27/03:00pm 30.6 NE 2 6 1005.8 - 0.0 - - 10 - - - -
27/02:30pm 30.4 SSE 4 8 1005.9 - 0.0 - - 10 - - - -
27/02:00pm 29.8 W 2 5 1006.4 - 0.0 - - 10 - - - -
27/01:30pm 29.5 WNW 4 8 1006.5 - 0.0 - - 10 - - - -
27/01:00pm 28.9 WNW 5 11 1007.0 - 0.0 - - 10 - - - -
27/12:30pm 28.2 W 6 8 1007.4 - 0.0 - - 10 - - - -
27/12:00pm 28.1 NW 3 7 1007.8 - 0.0 - Partly cloudy 10 - - - -
27/11:30am 27.9 SE 2 4 1008.3 - 0.0 - - 10 - - - -
27/11:00am 27.0 ESE 6 9 1008.9 - 0.0 - Partly cloudy 10 - - - -
27/10:30am 26.9 S 7 10 1009.5 - 0.0 - - 10 - - - -
27/10:00am 27.1 S 8 13 1010.0 - 0.0 - Partly cloudy 10 - - - -
27/09:30am 27.6 S 8 12 1010.2 - 0.0 - Partly cloudy 10 - - - -
27/09:00am 26.5 SSE 9 13 1010.4 - 0.0 - Partly cloudy 10 - - - -
27/08:30am 25.7 S 9 13 1010.2 - 0.0 - - 10 - - - -
27/08:00am 24.3 S 8 12 1009.8 - 0.0 - - 10 - - - -
27/07:30am 22.3 S 7 10 1009.4 - 0.0 - - 10 - - - -
27/07:00am 22.1 S 7 8 1008.8 - 0.0 - - 10 - - - -
27/06:30am 21.7 S 6 8 1008.3 - 0.0 - - 10 - - - -
27/06:00am 20.5 SSW 6 7 1007.9 - 0.0 - Mostly clear 10 - - - -
27/05:30am 20.4 S 6 8 1007.5 - 0.0 - - 10 - - - -

Other Formats:

Comma delimited format used in spreadsheet applications
http://www.bom.gov.au/fwo/IDQ60701/IDQ60701.94387.axf

JavaScript Object Notation format (JSON) in row-major order
http://www.bom.gov.au/fwo/IDQ60701/IDQ60701.94387.json